createdAt,value
2023-01-19T00:00:53.694Z,98718.72
2023-01-19T00:03:27.594Z,98724.69
2023-01-19T00:05:54.508Z,98718.06
2023-01-19T00:08:21.633Z,98715.53
2023-01-19T00:10:51.352Z,98723.75
2023-01-19T00:13:18.886Z,98716.47
2023-01-19T00:15:45.746Z,98714.91
2023-01-19T00:18:12.883Z,98714.16
2023-01-19T00:20:40.493Z,98713.88
2023-01-19T00:23:08.258Z,98716.75
2023-01-19T00:25:35.887Z,98729.91
2023-01-19T00:28:03.215Z,98721.34
2023-01-19T00:30:30.169Z,98717.69
2023-01-19T00:32:57.244Z,98713.63
2023-01-19T00:35:24.147Z,98713.50
2023-01-19T00:37:51.228Z,98719.00
2023-01-19T00:40:18.492Z,98716.28
2023-01-19T00:42:45.990Z,98719.38
2023-01-19T00:45:15.381Z,98722.00
2023-01-19T00:47:42.703Z,98721.38
2023-01-19T00:50:14.399Z,98720.69
2023-01-19T00:52:42.123Z,98714.38
2023-01-19T00:55:11.394Z,98715.47
2023-01-19T00:57:39.581Z,98711.03
2023-01-19T01:00:12.117Z,98715.41
2023-01-19T01:02:40.665Z,98707.19
2023-01-19T01:05:08.670Z,98698.97
2023-01-19T01:07:44.663Z,98704.66
2023-01-19T01:10:12.836Z,98703.72
2023-01-19T01:12:40.247Z,98706.44
2023-01-19T01:15:09.334Z,98705.59
2023-01-19T01:17:36.785Z,98693.47
2023-01-19T01:20:04.892Z,98687.69
2023-01-19T01:22:31.957Z,98692.16
2023-01-19T01:24:58.724Z,98696.06
2023-01-19T01:27:25.781Z,98703.59
2023-01-19T01:29:52.552Z,98707.00
2023-01-19T01:32:19.645Z,98712.47
2023-01-19T01:34:46.436Z,98715.72
2023-01-19T01:37:13.474Z,98706.50
2023-01-19T01:39:40.240Z,98702.22
2023-01-19T01:42:17.794Z,98701.28
2023-01-19T01:44:52.180Z,98699.88
2023-01-19T01:47:42.284Z,98696.53
2023-01-19T01:50:20.529Z,98711.88
2023-01-19T01:53:07.275Z,98707.44
2023-01-19T01:55:40.233Z,98715.59
2023-01-19T01:58:10.090Z,98706.34
2023-01-19T02:00:57.761Z,98717.34
2023-01-19T02:03:26.825Z,98722.56
2023-01-19T02:06:00.305Z,98727.91
2023-01-19T02:09:06.507Z,98741.22
2023-01-19T02:11:52.873Z,98739.47
2023-01-19T02:14:19.969Z,98732.78
2023-01-19T02:16:47.302Z,98718.81
2023-01-19T02:19:25.057Z,98688.31
2023-01-19T02:22:11.966Z,98673.13
2023-01-19T02:24:39.113Z,98681.09
2023-01-19T02:27:07.932Z,98695.03
2023-01-19T02:29:35.409Z,98714.53
2023-01-19T02:32:03.180Z,98733.59
2023-01-19T02:34:30.579Z,98756.91
2023-01-19T02:37:03.407Z,98747.00
2023-01-19T02:39:35.374Z,98723.03
2023-01-19T02:42:17.291Z,98710.00
2023-01-19T02:44:48.936Z,98705.44
2023-01-19T02:47:16.334Z,98711.19
2023-01-19T02:49:43.406Z,98695.44
2023-01-19T02:52:18.016Z,98685.13
2023-01-19T02:55:12.757Z,98674.94
2023-01-19T02:58:04.607Z,98697.50
2023-01-19T03:00:57.491Z,98713.38
2023-01-19T03:03:24.282Z,98717.75
2023-01-19T03:06:01.598Z,98716.13
2023-01-19T03:08:39.555Z,98728.69
2023-01-19T03:11:10.274Z,98725.06
2023-01-19T03:13:54.220Z,98715.56
2023-01-19T03:16:29.753Z,98732.63
2023-01-19T03:19:08.209Z,98739.59
2023-01-19T03:21:39.159Z,98752.13
2023-01-19T03:24:08.521Z,98757.75
2023-01-19T03:26:44.062Z,98758.25
2023-01-19T03:29:13.718Z,98751.03
2023-01-19T03:31:45.644Z,98731.44
2023-01-19T03:34:15.399Z,98706.13
2023-01-19T03:37:01.926Z,98706.56
2023-01-19T03:39:29.161Z,98691.16
2023-01-19T03:42:05.033Z,98662.78
2023-01-19T03:44:37.953Z,98663.69
2023-01-19T03:47:07.425Z,98678.56
2023-01-19T03:49:36.293Z,98675.56
2023-01-19T03:52:04.344Z,98674.22
2023-01-19T03:54:31.936Z,98690.38
2023-01-19T03:56:58.976Z,98694.91
2023-01-19T03:59:25.872Z,98699.69
2023-01-19T04:01:53.013Z,98718.56
2023-01-19T04:04:19.788Z,98737.16
2023-01-19T04:06:46.889Z,98725.81
2023-01-19T04:09:13.732Z,98723.22
2023-01-19T04:11:40.777Z,98700.78
2023-01-19T04:14:07.508Z,98723.88
2023-01-19T04:16:34.634Z,98715.13
2023-01-19T04:19:01.411Z,98710.00
2023-01-19T04:21:28.441Z,98719.00
2023-01-19T04:23:55.176Z,98727.91
2023-01-19T04:26:22.420Z,98713.97
2023-01-19T04:28:49.185Z,98713.13
2023-01-19T04:31:16.372Z,98721.34
2023-01-19T04:33:43.177Z,98707.91
2023-01-19T04:36:10.297Z,98714.63
2023-01-19T04:38:37.146Z,98726.16
2023-01-19T04:41:04.368Z,98708.00
2023-01-19T04:43:31.112Z,98704.31
2023-01-19T04:45:59.070Z,98697.00
2023-01-19T04:48:25.948Z,98704.66
2023-01-19T04:50:53.013Z,98699.69
2023-01-19T04:53:19.834Z,98690.44
2023-01-19T04:55:46.914Z,98700.09
2023-01-19T04:58:13.976Z,98711.00
2023-01-19T05:00:41.167Z,98706.47
2023-01-19T05:03:07.972Z,98724.63
2023-01-19T05:05:35.117Z,98730.00
2023-01-19T05:08:01.858Z,98743.59
2023-01-19T05:10:28.920Z,98744.16
2023-01-19T05:12:55.837Z,98742.63
2023-01-19T05:15:23.563Z,98722.91
2023-01-19T05:17:50.353Z,98734.16
2023-01-19T05:20:17.597Z,98746.44
2023-01-19T05:22:52.815Z,98761.63
2023-01-19T05:25:19.875Z,98760.31
2023-01-19T05:27:46.690Z,98761.06
2023-01-19T05:30:14.409Z,98768.13
2023-01-19T05:32:41.195Z,98769.88
2023-01-19T05:35:08.971Z,98766.25
2023-01-19T05:37:35.866Z,98766.97
2023-01-19T05:40:03.341Z,98768.03
2023-01-19T05:42:32.093Z,98772.22
2023-01-19T05:45:00.458Z,98759.81
2023-01-19T05:47:29.469Z,98754.59
2023-01-19T05:49:57.226Z,98740.94
2023-01-19T05:52:25.193Z,98739.16
2023-01-19T05:54:52.332Z,98754.50
2023-01-19T05:57:19.151Z,98747.16
2023-01-19T05:59:46.430Z,98728.84
2023-01-19T06:02:13.323Z,98715.72
2023-01-19T06:04:40.519Z,98710.75
2023-01-19T06:07:07.300Z,98734.13
2023-01-19T06:09:34.419Z,98732.88
2023-01-19T06:12:01.508Z,98731.63
2023-01-19T06:14:28.551Z,98720.38
2023-01-19T06:16:55.373Z,98701.69
2023-01-19T06:19:22.449Z,98718.41
2023-01-19T06:21:52.205Z,98728.09
2023-01-19T06:24:19.792Z,98728.09
2023-01-19T06:26:46.676Z,98713.41
2023-01-19T06:29:14.563Z,98708.66
2023-01-19T06:31:41.903Z,98711.13
2023-01-19T06:34:09.615Z,98703.56
2023-01-19T06:36:36.861Z,98719.78
2023-01-19T06:39:06.008Z,98727.34
2023-01-19T06:41:34.078Z,98740.28
2023-01-19T06:44:01.936Z,98756.38
2023-01-19T06:46:29.669Z,98756.31
2023-01-19T06:48:56.772Z,98757.06
2023-01-19T06:51:24.032Z,98759.59
2023-01-19T06:53:51.164Z,98755.72
2023-01-19T06:56:17.917Z,98749.34
2023-01-19T06:58:47.620Z,98748.91
2023-01-19T07:01:14.753Z,98750.13
2023-01-19T07:03:41.990Z,98737.75
2023-01-19T07:06:09.151Z,98741.94
2023-01-19T07:08:37.301Z,98734.78
2023-01-19T07:11:26.057Z,98733.19
2023-01-19T07:13:56.310Z,98734.53
2023-01-19T07:16:23.467Z,98734.38
2023-01-19T07:18:51.331Z,98729.19
2023-01-19T07:21:19.230Z,98727.13
2023-01-19T07:23:50.599Z,98744.13
2023-01-19T07:26:21.636Z,98760.25
2023-01-19T07:28:49.051Z,98760.84
2023-01-19T07:31:16.548Z,98769.25
2023-01-19T07:33:44.254Z,98773.38
2023-01-19T07:36:11.522Z,98766.38
2023-01-19T07:38:38.601Z,98759.84
2023-01-19T07:41:08.022Z,98760.69
2023-01-19T07:43:35.471Z,98765.38
2023-01-19T07:46:04.017Z,98760.34
2023-01-19T07:48:31.200Z,98761.75
2023-01-19T07:51:05.641Z,98764.13
2023-01-19T07:53:33.059Z,98781.53
2023-01-19T07:56:00.200Z,98781.69
2023-01-19T07:58:27.703Z,98775.28
2023-01-19T08:00:54.750Z,98797.00
2023-01-19T08:03:21.902Z,98778.81
2023-01-19T08:05:52.783Z,98787.50
2023-01-19T08:08:20.292Z,98776.53
2023-01-19T08:10:50.382Z,98774.53
2023-01-19T08:13:17.862Z,98765.44
2023-01-19T08:15:44.878Z,98761.91
2023-01-19T08:18:12.039Z,98763.25
2023-01-19T08:20:38.877Z,98757.84
2023-01-19T08:23:05.950Z,98756.50
2023-01-19T08:25:33.970Z,98770.22
2023-01-19T08:28:05.634Z,98765.50
2023-01-19T08:30:33.321Z,98760.09
2023-01-19T08:33:08.326Z,98766.59
2023-01-19T08:35:37.649Z,98768.72
2023-01-19T08:38:05.969Z,98766.59
2023-01-19T08:40:34.908Z,98781.28
2023-01-19T08:43:05.782Z,98781.56
2023-01-19T08:45:32.893Z,98777.84
2023-01-19T08:48:00.790Z,98777.25
2023-01-19T08:50:32.133Z,98783.47
2023-01-19T08:53:01.289Z,98783.41
2023-01-19T08:55:30.025Z,98794.59
2023-01-19T08:58:00.156Z,98788.44
2023-01-19T09:00:27.887Z,98781.56
2023-01-19T09:02:56.592Z,98782.91
2023-01-19T09:05:24.044Z,98778.19
2023-01-19T09:07:54.196Z,98777.88
2023-01-19T09:10:20.986Z,98772.75
2023-01-19T09:12:48.136Z,98764.56
2023-01-19T09:15:14.948Z,98764.81
2023-01-19T09:17:42.430Z,98764.97
2023-01-19T09:20:09.891Z,98778.00
2023-01-19T09:22:37.163Z,98776.97
2023-01-19T09:25:04.393Z,98786.41
2023-01-19T09:27:31.504Z,98780.63
2023-01-19T09:29:58.789Z,98772.53
2023-01-19T09:32:26.001Z,98767.81
2023-01-19T09:34:53.966Z,98769.78
2023-01-19T09:37:21.023Z,98782.47
2023-01-19T09:39:47.836Z,98780.03
2023-01-19T09:42:29.167Z,98779.59
2023-01-19T09:44:55.979Z,98779.53
2023-01-19T09:47:27.247Z,98773.13
2023-01-19T09:50:01.249Z,98766.69
2023-01-19T09:52:30.748Z,98775.19
2023-01-19T09:54:58.987Z,98773.88
2023-01-19T09:57:27.724Z,98776.50
2023-01-19T09:59:59.722Z,98779.69
2023-01-19T10:02:36.336Z,98775.59
2023-01-19T10:05:26.544Z,98783.66
2023-01-19T10:08:15.453Z,98787.31
2023-01-19T10:10:47.980Z,98778.56
2023-01-19T10:13:17.725Z,98795.56
2023-01-19T10:16:14.468Z,98798.84
2023-01-19T10:18:47.858Z,98799.78
2023-01-19T10:21:28.276Z,98796.66
2023-01-19T10:24:18.715Z,98787.50
2023-01-19T10:26:53.254Z,98792.97
2023-01-19T10:29:37.796Z,98802.09
2023-01-19T10:32:21.322Z,98788.00
2023-01-19T10:34:50.070Z,98789.16
2023-01-19T10:37:31.811Z,98798.56
2023-01-19T10:40:09.519Z,98803.34
2023-01-19T10:42:38.385Z,98800.84
2023-01-19T10:45:16.270Z,98814.50
2023-01-19T10:47:45.117Z,98819.41
2023-01-19T10:50:28.748Z,98815.72
2023-01-19T10:52:59.375Z,98820.06
2023-01-19T10:55:30.572Z,98814.13
2023-01-19T10:57:59.097Z,98814.19
2023-01-19T11:00:32.224Z,98821.84
2023-01-19T11:02:59.626Z,98821.06
2023-01-19T11:05:30.326Z,98820.94
2023-01-19T11:07:57.596Z,98828.00
2023-01-19T11:10:30.033Z,98821.78
2023-01-19T11:13:02.103Z,98810.06
2023-01-19T11:15:44.331Z,98812.91
2023-01-19T11:18:30.445Z,98820.09
2023-01-19T11:21:10.293Z,98811.28
2023-01-19T11:23:43.149Z,98821.16
2023-01-19T11:26:26.420Z,98813.31
2023-01-19T11:28:56.050Z,98810.97
2023-01-19T11:31:29.148Z,98816.00
2023-01-19T11:34:17.268Z,98816.66
2023-01-19T11:36:56.637Z,98818.72
2023-01-19T11:39:26.589Z,98827.38
2023-01-19T11:42:01.515Z,98837.72
2023-01-19T11:44:30.605Z,98829.06
2023-01-19T11:47:03.452Z,98829.59
2023-01-19T11:49:45.471Z,98835.63
2023-01-19T11:52:24.048Z,98834.72
2023-01-19T11:55:14.600Z,98831.34
2023-01-19T11:57:50.921Z,98833.66
2023-01-19T12:00:38.452Z,98847.47
2023-01-19T12:03:17.661Z,98851.25
2023-01-19T12:05:49.980Z,98849.44
2023-01-19T12:08:24.440Z,98858.22
2023-01-19T12:10:54.224Z,98858.09
2023-01-19T12:13:26.229Z,98857.03
2023-01-19T12:16:23.548Z,98867.44
2023-01-19T12:19:01.333Z,98873.75
2023-01-19T12:21:28.655Z,98875.91
2023-01-19T12:24:16.394Z,98872.09
2023-01-19T12:26:54.237Z,98864.03
2023-01-19T12:29:24.751Z,98870.81
2023-01-19T12:32:13.312Z,98881.16
2023-01-19T12:34:47.237Z,98886.00
2023-01-19T12:37:43.013Z,98891.00
2023-01-19T12:40:23.703Z,98889.84
2023-01-19T12:42:58.846Z,98898.66
2023-01-19T12:45:32.010Z,98897.13
2023-01-19T12:48:01.975Z,98892.91
2023-01-19T12:50:38.090Z,98905.34
2023-01-19T12:53:15.903Z,98901.03
2023-01-19T12:55:46.778Z,98910.22
2023-01-19T12:58:21.679Z,98908.09
2023-01-19T13:00:51.870Z,98914.00
2023-01-19T13:03:18.633Z,98911.44
2023-01-19T13:05:56.451Z,98920.97
2023-01-19T13:08:29.920Z,98931.22
2023-01-19T13:11:03.190Z,98942.47
2023-01-19T13:13:36.461Z,98941.53
2023-01-19T13:16:18.845Z,98953.09
2023-01-19T13:18:57.675Z,98959.00
2023-01-19T13:21:30.667Z,98970.97
2023-01-19T13:24:00.476Z,98971.31
2023-01-19T13:26:30.932Z,98980.59
2023-01-19T13:29:05.817Z,98974.78
2023-01-19T13:31:37.476Z,98980.28
2023-01-19T13:34:11.630Z,98986.13
2023-01-19T13:36:44.759Z,98992.34
2023-01-19T13:39:18.515Z,98993.06
2023-01-19T13:41:47.096Z,99002.81
2023-01-19T13:44:36.377Z,99001.97
2023-01-19T13:47:04.592Z,99011.41
2023-01-19T13:49:35.986Z,99019.22
2023-01-19T13:52:19.750Z,99019.22
2023-01-19T13:54:57.953Z,99025.94
2023-01-19T13:57:41.184Z,99023.63
2023-01-19T14:00:16.993Z,99020.81
2023-01-19T14:03:23.897Z,99037.56
2023-01-19T14:05:52.749Z,99039.72
2023-01-19T14:08:21.386Z,99040.75
2023-01-19T14:10:53.912Z,99029.03
2023-01-19T14:13:29.864Z,99031.50
2023-01-19T14:16:04.719Z,99034.88
2023-01-19T14:18:33.857Z,99044.03
2023-01-19T14:21:15.052Z,99014.72
2023-01-19T14:23:55.095Z,99030.34
2023-01-19T14:26:42.978Z,99019.56
2023-01-19T14:29:09.976Z,99016.28
2023-01-19T14:31:48.997Z,99035.44
2023-01-19T14:34:36.395Z,99041.03
2023-01-19T14:37:06.391Z,99050.97
2023-01-19T14:39:36.066Z,99050.75
2023-01-19T14:42:06.826Z,99051.59
2023-01-19T14:44:36.113Z,99047.16
2023-01-19T14:47:04.744Z,99055.31
2023-01-19T14:49:35.656Z,99064.53
2023-01-19T14:52:20.777Z,99063.59
2023-01-19T14:54:48.866Z,99082.31
2023-01-19T14:57:15.753Z,99071.97
2023-01-19T14:59:48.284Z,99072.84
2023-01-19T15:02:15.761Z,99085.78
2023-01-19T15:04:42.913Z,99110.72
2023-01-19T15:07:18.177Z,99111.41
2023-01-19T15:09:46.912Z,99118.69
2023-01-19T15:12:17.378Z,99134.53
2023-01-19T15:14:45.445Z,99139.06
2023-01-19T15:17:25.251Z,99144.28
2023-01-19T15:19:54.091Z,99140.50
2023-01-19T15:22:24.398Z,99127.66
2023-01-19T15:24:51.437Z,99126.31
2023-01-19T15:27:18.279Z,99122.31
2023-01-19T15:29:46.110Z,99121.25
2023-01-19T15:32:14.697Z,99130.19
2023-01-19T15:34:42.143Z,99144.50
2023-01-19T15:37:08.949Z,99137.06
2023-01-19T15:39:36.184Z,99142.25
2023-01-19T15:42:03.325Z,99150.91
2023-01-19T15:44:30.589Z,99145.69
2023-01-19T15:46:57.598Z,99135.34
2023-01-19T15:49:24.870Z,99139.31
2023-01-19T15:51:51.902Z,99146.06
2023-01-19T15:54:19.448Z,99162.00
2023-01-19T15:56:46.304Z,99176.75
2023-01-19T15:59:13.460Z,99168.88
2023-01-19T16:01:41.066Z,99168.31
2023-01-19T16:04:11.012Z,99174.63
2023-01-19T16:06:38.114Z,99204.19
2023-01-19T16:09:05.446Z,99213.16
2023-01-19T16:11:34.601Z,99218.94
2023-01-19T16:14:01.855Z,99212.91
2023-01-19T16:16:29.514Z,99214.41
2023-01-19T16:18:57.340Z,99232.09
2023-01-19T16:21:24.572Z,99232.28
2023-01-19T16:23:52.013Z,99234.72
2023-01-19T16:26:29.507Z,99245.09
2023-01-19T16:29:02.361Z,99235.41
2023-01-19T16:31:29.766Z,99252.63
2023-01-19T16:33:56.945Z,99267.69
2023-01-19T16:36:28.862Z,99268.44
2023-01-19T16:38:59.957Z,99268.28
2023-01-19T16:41:27.664Z,99270.19
2023-01-19T16:43:57.377Z,99277.06
2023-01-19T16:46:30.451Z,99295.59
2023-01-19T16:49:17.357Z,99292.34
2023-01-19T16:51:44.291Z,99293.34
2023-01-19T16:54:16.780Z,99295.28
2023-01-19T16:56:44.042Z,99302.31
2023-01-19T16:59:13.006Z,99323.13
2023-01-19T17:01:40.058Z,99322.44
2023-01-19T17:04:07.659Z,99317.63
2023-01-19T17:06:34.708Z,99321.59
2023-01-19T17:09:02.052Z,99323.88
2023-01-19T17:11:31.033Z,99342.66
2023-01-19T17:14:00.276Z,99343.50
2023-01-19T17:16:28.879Z,99347.06
2023-01-19T17:18:58.313Z,99353.06
2023-01-19T17:21:25.701Z,99343.50
2023-01-19T17:23:54.459Z,99357.88
2023-01-19T17:26:22.365Z,99368.88
2023-01-19T17:28:49.430Z,99363.06
2023-01-19T17:31:19.613Z,99365.88
2023-01-19T17:33:49.275Z,99363.31
2023-01-19T17:36:22.552Z,99361.69
2023-01-19T17:38:50.265Z,99362.94
2023-01-19T17:41:19.992Z,99368.81
2023-01-19T17:43:47.650Z,99368.88
2023-01-19T17:46:14.495Z,99382.88
2023-01-19T17:48:41.629Z,99386.31
2023-01-19T17:51:12.946Z,99383.50
2023-01-19T17:53:41.983Z,99391.00
2023-01-19T17:56:14.332Z,99391.69
2023-01-19T17:58:41.437Z,99392.53
2023-01-19T18:01:15.946Z,99389.91
2023-01-19T18:03:43.345Z,99390.72
2023-01-19T18:06:10.248Z,99389.28
2023-01-19T18:08:39.712Z,99390.16
2023-01-19T18:11:07.376Z,99396.19
2023-01-19T18:13:34.992Z,99396.16
2023-01-19T18:16:04.209Z,99393.19
2023-01-19T18:18:31.997Z,99398.41
2023-01-19T18:21:00.228Z,99397.31
2023-01-19T18:23:28.425Z,99393.81
2023-01-19T18:26:02.947Z,99392.97
2023-01-19T18:28:31.152Z,99403.28
2023-01-19T18:30:58.251Z,99396.94
2023-01-19T18:33:26.664Z,99400.84
2023-01-19T18:35:54.524Z,99410.56
2023-01-19T18:38:24.616Z,99411.34
2023-01-19T18:41:12.745Z,99423.16
2023-01-19T18:43:40.151Z,99426.84
2023-01-19T18:46:07.424Z,99423.94
2023-01-19T18:48:35.256Z,99412.84
2023-01-19T18:51:13.200Z,99422.50
2023-01-19T18:53:40.737Z,99425.22
2023-01-19T18:56:08.498Z,99427.06
2023-01-19T18:58:38.168Z,99425.78
2023-01-19T19:01:16.442Z,99424.31
2023-01-19T19:03:43.531Z,99434.16
2023-01-19T19:06:10.323Z,99430.47
2023-01-19T19:08:37.499Z,99430.81
2023-01-19T19:11:08.340Z,99432.56
2023-01-19T19:13:38.232Z,99435.28
2023-01-19T19:16:07.146Z,99441.94
2023-01-19T19:18:35.360Z,99447.00
2023-01-19T19:21:07.587Z,99443.22
2023-01-19T19:23:35.284Z,99449.00
2023-01-19T19:26:07.428Z,99437.31
2023-01-19T19:28:36.760Z,99452.69
2023-01-19T19:31:15.490Z,99460.75
2023-01-19T19:33:42.938Z,99474.06
2023-01-19T19:36:10.413Z,99461.34
2023-01-19T19:38:37.787Z,99465.63
2023-01-19T19:41:08.766Z,99480.13
2023-01-19T19:43:36.492Z,99480.38
2023-01-19T19:46:09.597Z,99478.59
2023-01-19T19:48:39.244Z,99488.16
2023-01-19T19:51:19.678Z,99487.34
2023-01-19T19:53:48.936Z,99504.19
2023-01-19T19:56:19.867Z,99511.19
2023-01-19T19:58:47.849Z,99508.97
2023-01-19T20:01:25.922Z,99507.91
2023-01-19T20:03:58.784Z,99519.16
2023-01-19T20:06:27.132Z,99514.16
2023-01-19T20:08:56.218Z,99524.75
2023-01-19T20:11:27.696Z,99509.38
2023-01-19T20:13:55.123Z,99506.88
2023-01-19T20:16:23.204Z,99506.00
2023-01-19T20:18:54.000Z,99493.88
2023-01-19T20:21:25.283Z,99502.44
2023-01-19T20:23:53.644Z,99494.91
2023-01-19T20:26:25.209Z,99492.41
2023-01-19T20:28:53.795Z,99502.97
2023-01-19T20:31:26.922Z,99503.63
2023-01-19T20:33:56.304Z,99500.66
2023-01-19T20:36:24.611Z,99518.63
2023-01-19T20:38:53.357Z,99503.38
2023-01-19T20:41:20.724Z,99511.88
2023-01-19T20:43:47.902Z,99512.22
2023-01-19T20:46:14.953Z,99518.31
2023-01-19T20:48:42.038Z,99517.69
2023-01-19T20:51:11.756Z,99522.81
2023-01-19T20:53:40.736Z,99511.28
2023-01-19T20:56:11.579Z,99506.38
2023-01-19T20:58:39.246Z,99505.97
2023-01-19T21:01:14.219Z,99496.31
2023-01-19T21:03:42.000Z,99496.28
2023-01-19T21:06:09.527Z,99506.81
2023-01-19T21:08:37.397Z,99512.72
2023-01-19T21:11:04.984Z,99509.94
2023-01-19T21:13:32.157Z,99514.03
2023-01-19T21:16:00.007Z,99515.50
2023-01-19T21:18:28.013Z,99520.25
2023-01-19T21:20:57.409Z,99513.63
2023-01-19T21:23:26.370Z,99524.59
2023-01-19T21:25:55.686Z,99529.59
2023-01-19T21:28:23.739Z,99529.88
2023-01-19T21:30:51.756Z,99541.66
2023-01-19T21:33:19.791Z,99538.69
2023-01-19T21:36:04.479Z,99544.06
2023-01-19T21:38:32.010Z,99540.13
2023-01-19T21:40:58.901Z,99561.69
2023-01-19T21:43:26.611Z,99559.09
2023-01-19T21:45:53.380Z,99572.06
2023-01-19T21:48:20.549Z,99588.41
2023-01-19T21:50:57.065Z,99618.56
2023-01-19T21:53:24.140Z,99635.78
2023-01-19T21:55:50.913Z,99645.91
2023-01-19T21:58:18.016Z,99648.75
2023-01-19T22:00:45.442Z,99637.19
2023-01-19T22:03:12.629Z,99617.09
2023-01-19T22:05:39.457Z,99603.91
2023-01-19T22:08:06.695Z,99590.63
2023-01-19T22:10:37.472Z,99576.09
2023-01-19T22:13:06.634Z,99586.09
2023-01-19T22:15:33.761Z,99600.75
2023-01-19T22:18:01.097Z,99610.00
2023-01-19T22:20:28.336Z,99609.03
2023-01-19T22:22:56.336Z,99597.97
2023-01-19T22:25:27.858Z,99585.19
2023-01-19T22:27:55.786Z,99590.25
2023-01-19T22:30:22.686Z,99589.25
2023-01-19T22:32:49.785Z,99597.91
2023-01-19T22:35:16.660Z,99607.53
2023-01-19T22:37:43.729Z,99599.75
2023-01-19T22:40:11.247Z,99594.91
2023-01-19T22:42:38.329Z,99595.44
2023-01-19T22:45:05.496Z,99592.97
2023-01-19T22:47:32.527Z,99591.91
2023-01-19T22:49:59.307Z,99593.88
2023-01-19T22:52:26.373Z,99591.53
2023-01-19T22:54:56.295Z,99589.06
2023-01-19T22:57:23.366Z,99595.19
2023-01-19T22:59:50.157Z,99581.09
2023-01-19T23:02:18.627Z,99587.06
2023-01-19T23:04:47.344Z,99582.78
2023-01-19T23:07:14.447Z,99580.56
2023-01-19T23:09:41.331Z,99572.19
2023-01-19T23:12:08.376Z,99564.47
2023-01-19T23:14:36.228Z,99554.09
2023-01-19T23:17:03.306Z,99552.19
2023-01-19T23:19:30.097Z,99540.91
2023-01-19T23:21:57.260Z,99547.06
2023-01-19T23:24:24.075Z,99549.50
2023-01-19T23:26:51.174Z,99546.69
2023-01-19T23:29:18.206Z,99549.50
2023-01-19T23:31:47.605Z,99551.00
2023-01-19T23:34:15.091Z,99567.78
2023-01-19T23:36:43.066Z,99570.28
2023-01-19T23:39:18.759Z,99565.19
2023-01-19T23:41:46.064Z,99564.25
2023-01-19T23:44:13.170Z,99566.63
2023-01-19T23:46:40.341Z,99575.91
2023-01-19T23:49:07.114Z,99581.31
2023-01-19T23:51:34.582Z,99581.03
2023-01-19T23:54:01.493Z,99581.28
2023-01-19T23:56:33.993Z,99588.53
2023-01-19T23:59:07.065Z,99579.69
